Cheyenne — WDE9553 — position and weather

sailwx.info

Track history (hours):
 
Tides and Currents Weather Stations Pressure Air Temp Water Temp Dewpoint Dewpoint Depression Visibility Wind Speed Wind Dir Waves Ship Positions

Cheyenne

Owner: DMC MARINE, LLC, HILLSIDE, NJ. More information available from US FCC via Universal Licensing System and Coast Guard Vessel Documentation Center.

Last reported at 2015-Mar-06 10:33 UTC. Time now 2015-Mar-06 11:09 UTC.
Position N 40°41' W 074°05'.

Length 29 m; draft 4 m.

Type: Towing. MMSI: 367418570.

Date/timePositionNaut miles runAvg speedWind from/ knotsBaromVisibWave heightAir tempDewpointWater temp
2015-Mar-06 10:33N 40°41' W 074°05'0 0.0
2015-Mar-06 09:30N 40°41' W 074°05'0 0.0
2015-Mar-06 08:33N 40°41' W 074°05'0 0.0
2015-Mar-06 07:31N 40°41' W 074°05'0 0.0
2015-Mar-06 06:33N 40°41' W 074°05'0 0.0
2015-Mar-06 05:33N 40°41' W 074°05'0 0.0
2015-Mar-06 04:33N 40°41' W 074°05'0 0.0
2015-Mar-06 03:33N 40°41' W 074°05'0 0.0
2015-Mar-06 02:32N 40°41' W 074°05'0 0.0
2015-Mar-06 01:33N 40°41' W 074°05'0 0.0
2015-Mar-06 00:32N 40°41' W 074°05'0 0.0
2015-Mar-05 23:33N 40°41' W 074°05'0 0.0
2015-Mar-05 22:33N 40°41' W 074°05'0 0.0
2015-Mar-05 21:33N 40°41' W 074°05'0 0.0
2015-Mar-05 20:33N 40°41' W 074°05'0 0.0
2015-Mar-05 19:32N 40°41' W 074°05'0 0.0
2015-Mar-05 18:33N 40°41' W 074°05'0 0.0
2015-Mar-05 17:33N 40°41' W 074°05'0 0.0
2015-Mar-05 16:33N 40°41' W 074°05'0 0.0
2015-Mar-05 15:33N 40°41' W 074°05'0 0.0
2015-Mar-05 14:33N 40°41' W 074°05'0 0.0
2015-Mar-05 13:33N 40°41' W 074°05'0 0.0
2015-Mar-05 12:33N 40°41' W 074°05'0 0.0
2015-Mar-05 11:33N 40°41' W 074°05'0 0.0
2015-Mar-05 10:26N 40°41' W 074°05'0 0.0
2015-Mar-05 09:33N 40°41' W 074°05'0 0.0
2015-Mar-05 08:33N 40°41' W 074°05'0 0.0
2015-Mar-05 07:33N 40°41' W 074°05'0 0.0
2015-Mar-05 06:33N 40°41' W 074°05'0 0.0
2015-Mar-05 05:32N 40°41' W 074°05'0 0.0
2015-Mar-05 04:33N 40°41' W 074°05'0 0.0
2015-Mar-05 03:33N 40°41' W 074°05'0 0.0
2015-Mar-05 02:33N 40°41' W 074°05'0 0.0
2015-Mar-05 01:33N 40°41' W 074°05'1 0.6
2015-Mar-05 00:33N 40°41' W 074°04'3 3.2
2015-Mar-04 23:33N 40°40' W 073°60'4 3.7
2015-Mar-04 22:34N 40°41' W 074°05'0 0.0
2015-Mar-04 21:33N 40°41' W 074°05'0 0.0
2015-Mar-04 20:33N 40°41' W 074°05'0 0.0
2015-Mar-04 19:33N 40°41' W 074°05'0 0.0
2015-Mar-04 18:33N 40°41' W 074°05'1 0.8
2015-Mar-04 17:33N 40°41' W 074°04'5 5.2
2015-Mar-04 16:33N 40°44' W 073°58'1 1.2
2015-Mar-04 15:29N 40°44' W 073°57'2 2.7
2015-Mar-04 14:33N 40°42' W 073°59'4 4.4
2015-Mar-04 13:33N 40°41' W 074°05'0 0.1
2015-Mar-04 12:32N 40°41' W 074°05'0 0.0
2015-Mar-04 11:33N 40°41' W 074°05'0 0.0
2015-Mar-04 10:33N 40°41' W 074°05'0 0.0
2015-Mar-04 09:33N 40°41' W 074°05'0 0.0
2015-Mar-04 08:33N 40°41' W 074°05'0 0.0
2015-Mar-04 07:33N 40°41' W 074°05'0 0.0
2015-Mar-04 06:33N 40°41' W 074°05'0 0.0
2015-Mar-04 05:33N 40°41' W 074°05'0 0.0
2015-Mar-04 04:33N 40°41' W 074°05'0 0.0
2015-Mar-04 03:33N 40°41' W 074°05'0 0.0
2015-Mar-04 02:30N 40°41' W 074°05'0 0.0
2015-Mar-04 01:33N 40°41' W 074°05'0 0.0
2015-Mar-04 00:28N 40°41' W 074°05'0 0.0
2015-Mar-03 23:28N 40°41' W 074°05'0 0.0
2015-Mar-03 22:33N 40°41' W 074°05'1 1.4
2015-Mar-03 21:33N 40°41' W 074°03'1 1.4
2015-Mar-03 20:33N 40°41' W 074°05'0 0.0
2015-Mar-03 19:34N 40°41' W 074°05'0 0.0
2015-Mar-03 18:33N 40°41' W 074°05'0 0.0
2015-Mar-03 17:34N 40°41' W 074°05'0 0.0
2015-Mar-03 16:33N 40°41' W 074°05'0 0.0
2015-Mar-03 15:33N 40°41' W 074°05'0 0.0
2015-Mar-03 14:33N 40°41' W 074°05'0 0.0
2015-Mar-03 13:33N 40°41' W 074°05'0 0.0
2015-Mar-03 12:33N 40°41' W 074°05'0 0.0
2015-Mar-03 11:34N 40°41' W 074°05'0 0.0
2015-Mar-03 09:32N 40°41' W 074°05'0 0.0
2015-Mar-03 08:33N 40°41' W 074°05'0 0.0
2015-Mar-03 07:33N 40°41' W 074°05'0 0.0
2015-Mar-03 06:33N 40°41' W 074°05'0 0.0
2015-Mar-03 05:33N 40°41' W 074°05'0 0.0
2015-Mar-03 04:33N 40°41' W 074°05'0 0.0
2015-Mar-03 03:33N 40°41' W 074°05'0 0.0
2015-Mar-03 02:33N 40°41' W 074°05'0 0.0
2015-Mar-03 01:33N 40°41' W 074°05'0 0.0
2015-Mar-03 00:33N 40°41' W 074°05'2 1.8
2015-Mar-02 23:33N 40°41' W 074°02'2 1.9
2015-Mar-02 22:33N 40°40' W 073°60'3 3.5
2015-Mar-02 21:33N 40°41' W 074°04'3 2.5
2015-Mar-02 20:24N 40°41' W 074°08'0 0.0
2015-Mar-02 18:14N 40°41' W 074°08'0 0.0
2015-Mar-02 17:16N 40°41' W 074°08'0 0.0
2015-Mar-02 16:25N 40°41' W 074°08'0 0.0
2015-Mar-02 15:30N 40°41' W 074°08'1 0.5
2015-Mar-02 14:26N 40°42' W 074°09'3 2.9
2015-Mar-02 13:31N 40°39' W 074°09'3 3.4
2015-Mar-02 12:33N 40°39' W 074°05'2 1.8
2015-Mar-02 11:33N 40°41' W 074°05'0 0.1
2015-Mar-02 10:30N 40°41' W 074°05'0 0.0
2015-Mar-02 09:31N 40°41' W 074°05'0 0.0
2015-Mar-02 08:32N 40°41' W 074°05'0 0.0
2015-Mar-02 07:33N 40°41' W 074°05'0 0.0
2015-Mar-02 06:33N 40°41' W 074°05'0 0.0
2015-Mar-02 05:33N 40°41' W 074°05'0 0.0
2015-Mar-02 04:33N 40°41' W 074°05'0 0.0
2015-Mar-02 03:33N 40°41' W 074°05'0 0.0
2015-Mar-02 02:19N 40°41' W 074°05'0 0.0
2015-Mar-02 01:33N 40°41' W 074°05'0 0.0
2015-Mar-02 00:33N 40°41' W 074°05'0 0.0
2015-Mar-01 23:33N 40°41' W 074°05'0 0.0
2015-Mar-01 22:28N 40°41' W 074°05'0 0.0
2015-Mar-01 21:33N 40°41' W 074°05'0 0.0
2015-Mar-01 20:33N 40°41' W 074°05'0 0.0
2015-Mar-01 19:33N 40°41' W 074°05'0 0.0
2015-Mar-01 18:23N 40°41' W 074°05'0 0.0
2015-Mar-01 17:33N 40°41' W 074°05'0 0.0
2015-Mar-01 16:26N 40°41' W 074°05'0 0.0
2015-Mar-01 15:33N 40°41' W 074°05'0 0.0
2015-Mar-01 14:33N 40°41' W 074°05'0 0.0
2015-Mar-01 13:33N 40°41' W 074°05'0 0.0
2015-Mar-01 12:33N 40°41' W 074°05'0 0.0
2015-Mar-01 11:33N 40°41' W 074°05'0 0.0
2015-Mar-01 10:31N 40°41' W 074°05'0 0.0
2015-Mar-01 09:33N 40°41' W 074°05'0 0.0
2015-Mar-01 08:33N 40°41' W 074°05'0 0.0
2015-Mar-01 07:33N 40°41' W 074°05'0 0.0
2015-Mar-01 05:27N 40°41' W 074°05'0 0.0
2015-Mar-01 04:32N 40°41' W 074°05'0 0.0
2015-Mar-01 03:26N 40°41' W 074°05'0 0.0
2015-Mar-01 02:19N 40°41' W 074°05'0 0.0
2015-Mar-01 01:31N 40°41' W 074°05'0 0.0
2015-Feb-28 22:06N 40°41' W 074°05'0 0.0
2015-Feb-28 21:14N 40°41' W 074°05'0 0.0
2015-Feb-28 18:26N 40°41' W 074°05'0 0.0
2015-Feb-28 17:32N 40°41' W 074°05'0 0.0
2015-Feb-28 16:30N 40°41' W 074°05'0 0.0
2015-Feb-28 15:09N 40°41' W 074°05'0 0.0
2015-Feb-28 14:33N 40°41' W 074°05'0 0.0
2015-Feb-28 13:33N 40°41' W 074°05'0 0.0
2015-Feb-28 12:33N 40°41' W 074°05'0 0.0
2015-Feb-28 11:24N 40°41' W 074°05'0 0.0
2015-Feb-28 10:32N 40°41' W 074°05'0 0.0
2015-Feb-28 09:32N 40°41' W 074°05'0 0.0
2015-Feb-28 08:27N 40°41' W 074°05'0 0.0
2015-Feb-28 07:26N 40°41' W 074°05'0 0.0
2015-Feb-28 03:31N 40°41' W 074°05'0 0.0
2015-Feb-28 02:21N 40°41' W 074°05'0 0.0
2015-Feb-28 01:33N 40°41' W 074°05'0 0.0
2015-Feb-28 00:25N 40°41' W 074°05'0 0.0
2015-Feb-27 22:15N 40°41' W 074°05'0 0.0
2015-Feb-27 21:31N 40°41' W 074°05'3 3.3
2015-Feb-27 20:33N 40°40' W 074°01'0 0.2
2015-Feb-27 19:33N 40°40' W 074°01'3 3.2
2015-Feb-27 18:33N 40°39' W 074°05'3 3.1
2015-Feb-27 17:30N 40°41' W 074°08'0 0.1
2015-Feb-27 16:21N 40°41' W 074°08'0 0.2
2015-Feb-27 14:33N 40°41' W 074°08'0 0.1
2015-Feb-27 13:34N 40°41' W 074°08'1 0.1
2015-Feb-27 06:26N 40°42' W 074°09'2 0.5
2015-Feb-27 02:31N 40°40' W 074°08'4 2.6
2015-Feb-27 01:09N 40°41' W 074°04'1 1.0
2015-Feb-27 00:29N 40°41' W 074°04'5 5.7
2015-Feb-26 23:31N 40°44' W 073°58'0 0.0
2015-Feb-26 21:28N 40°44' W 073°58'7 7.5
2015-Feb-26 20:29N 40°39' W 074°06'3 3.2
2015-Feb-26 19:30N 40°41' W 074°08'0 0.0
2015-Feb-26 18:32N 40°41' W 074°08'0 0.1
2015-Feb-26 17:32N 40°41' W 074°08'3 2.1
2015-Feb-26 16:17N 40°39' W 074°07'3 3.6
2015-Feb-26 15:33N 40°41' W 074°04'0 0.2
2015-Feb-26 14:31N 40°41' W 074°05'0 0.0
2015-Feb-26 13:33N 40°41' W 074°05'0 0.0
2015-Feb-26 12:30N 40°41' W 074°05'0 0.0
2015-Feb-26 11:31N 40°41' W 074°05'0 0.0
2015-Feb-26 10:33N 40°41' W 074°05'0 0.0
2015-Feb-26 09:33N 40°41' W 074°05'0 0.0
2015-Feb-26 08:33N 40°41' W 074°05'0 0.0
2015-Feb-26 07:33N 40°41' W 074°05'0 0.0
2015-Feb-26 06:33N 40°41' W 074°05'0 0.0
2015-Feb-26 05:33N 40°41' W 074°05'0 0.0
2015-Feb-26 04:33N 40°41' W 074°05'1 1.3
2015-Feb-26 03:33N 40°40' W 074°04'4 2.7
2015-Feb-26 02:12N 40°41' W 074°08'0 0.3
2015-Feb-26 01:15N 40°41' W 074°09'2 3.0
2015-Feb-26 00:30N 40°39' W 074°08'4 3.6
2015-Feb-25 23:32N 40°40' W 074°04'1 1.1
2015-Feb-25 22:33N 40°41' W 074°05'4 3.3
2015-Feb-25 21:17N 40°39' W 074°09'4 1.2
2015-Feb-25 18:10N 40°40' W 074°04'1 2.4
2015-Feb-25 17:33N 40°41' W 074°04'0 0.2
2015-Feb-25 16:33N 40°41' W 074°05'0 0.0
2015-Feb-25 15:33N 40°41' W 074°05'0 0.0
2015-Feb-25 14:33N 40°41' W 074°05'0 0.0
2015-Feb-25 13:32N 40°41' W 074°05'0 0.0
2015-Feb-25 12:33N 40°41' W 074°05'0 0.0
2015-Feb-25 11:33N 40°41' W 074°05'0 0.0
2015-Feb-25 10:33N 40°41' W 074°05'0 0.0
2015-Feb-25 09:32N 40°41' W 074°05'0 0.0
2015-Feb-25 08:32N 40°41' W 074°05'0 0.0
2015-Feb-25 07:33N 40°41' W 074°05'0 0.0
2015-Feb-25 06:33N 40°41' W 074°05'0 0.0
2015-Feb-25 05:33N 40°41' W 074°05'0 0.0
2015-Feb-25 04:33N 40°41' W 074°05'0 0.0
2015-Feb-25 03:33N 40°41' W 074°05'0 0.0
2015-Feb-25 02:33N 40°41' W 074°05'0 0.0
2015-Feb-25 01:33N 40°41' W 074°05'0 0.0
2015-Feb-25 00:33N 40°41' W 074°05'0 0.0
2015-Feb-24 23:33N 40°41' W 074°05'0 0.0
2015-Feb-24 22:33N 40°41' W 074°05'0 0.0
2015-Feb-24 21:33N 40°41' W 074°05'0 0.0
2015-Feb-24 20:33N 40°41' W 074°05'0 0.0
2015-Feb-24 19:33N 40°41' W 074°05'0 0.0
2015-Feb-24 18:33N 40°41' W 074°05'0 0.0
2015-Feb-24 17:33N 40°41' W 074°05'0 0.0
2015-Feb-24 16:34N 40°41' W 074°05'0 0.0
2015-Feb-24 15:33N 40°41' W 074°05'0 0.0
2015-Feb-24 14:33N 40°41' W 074°05'0 0.0
2015-Feb-24 13:33N 40°41' W 074°05'0 0.0
2015-Feb-24 12:33N 40°41' W 074°05'0 0.0
2015-Feb-24 11:33N 40°41' W 074°05'0 0.0
2015-Feb-24 10:33N 40°41' W 074°05'  
Track history (hours):
 
Tides and Currents Weather Stations Pressure Air Temp Water Temp Dewpoint Dewpoint Depression Visibility Wind Speed Wind Dir Waves Ship Positions

Cheyenne

Owner: DMC MARINE, LLC, HILLSIDE, NJ. More information available from US FCC via Universal Licensing System and Coast Guard Vessel Documentation Center.

Last reported at 2015-Mar-06 10:33 UTC. Time now 2015-Mar-06 11:09 UTC.
Position N 40°41' W 074°05'.

Length 29 m; draft 4 m.

Type: Towing. MMSI: 367418570.

Date/timePositionNaut miles runAvg speedWind from/ knotsBaromVisibWave heightAir tempDewpointWater temp
2015-Mar-06 10:33N 40°41' W 074°05'0 0.0
2015-Mar-06 09:30N 40°41' W 074°05'0 0.0
2015-Mar-06 08:33N 40°41' W 074°05'0 0.0
2015-Mar-06 07:31N 40°41' W 074°05'0 0.0
2015-Mar-06 06:33N 40°41' W 074°05'0 0.0
2015-Mar-06 05:33N 40°41' W 074°05'0 0.0
2015-Mar-06 04:33N 40°41' W 074°05'0 0.0
2015-Mar-06 03:33N 40°41' W 074°05'0 0.0
2015-Mar-06 02:32N 40°41' W 074°05'0 0.0
2015-Mar-06 01:33N 40°41' W 074°05'0 0.0
2015-Mar-06 00:32N 40°41' W 074°05'0 0.0
2015-Mar-05 23:33N 40°41' W 074°05'0 0.0
2015-Mar-05 22:33N 40°41' W 074°05'0 0.0
2015-Mar-05 21:33N 40°41' W 074°05'0 0.0
2015-Mar-05 20:33N 40°41' W 074°05'0 0.0
2015-Mar-05 19:32N 40°41' W 074°05'0 0.0
2015-Mar-05 18:33N 40°41' W 074°05'0 0.0
2015-Mar-05 17:33N 40°41' W 074°05'0 0.0
2015-Mar-05 16:33N 40°41' W 074°05'0 0.0
2015-Mar-05 15:33N 40°41' W 074°05'0 0.0
2015-Mar-05 14:33N 40°41' W 074°05'0 0.0
2015-Mar-05 13:33N 40°41' W 074°05'0 0.0
2015-Mar-05 12:33N 40°41' W 074°05'0 0.0
2015-Mar-05 11:33N 40°41' W 074°05'0 0.0
2015-Mar-05 10:26N 40°41' W 074°05'0 0.0
2015-Mar-05 09:33N 40°41' W 074°05'0 0.0
2015-Mar-05 08:33N 40°41' W 074°05'0 0.0
2015-Mar-05 07:33N 40°41' W 074°05'0 0.0
2015-Mar-05 06:33N 40°41' W 074°05'0 0.0
2015-Mar-05 05:32N 40°41' W 074°05'0 0.0
2015-Mar-05 04:33N 40°41' W 074°05'0 0.0
2015-Mar-05 03:33N 40°41' W 074°05'0 0.0
2015-Mar-05 02:33N 40°41' W 074°05'0 0.0
2015-Mar-05 01:33N 40°41' W 074°05'1 0.6
2015-Mar-05 00:33N 40°41' W 074°04'3 3.2
2015-Mar-04 23:33N 40°40' W 073°60'4 3.7
2015-Mar-04 22:34N 40°41' W 074°05'0 0.0
2015-Mar-04 21:33N 40°41' W 074°05'0 0.0
2015-Mar-04 20:33N 40°41' W 074°05'0 0.0
2015-Mar-04 19:33N 40°41' W 074°05'0 0.0
2015-Mar-04 18:33N 40°41' W 074°05'1 0.8
2015-Mar-04 17:33N 40°41' W 074°04'5 5.2
2015-Mar-04 16:33N 40°44' W 073°58'1 1.2
2015-Mar-04 15:29N 40°44' W 073°57'2 2.7
2015-Mar-04 14:33N 40°42' W 073°59'4 4.4
2015-Mar-04 13:33N 40°41' W 074°05'0 0.1
2015-Mar-04 12:32N 40°41' W 074°05'0 0.0
2015-Mar-04 11:33N 40°41' W 074°05'0 0.0
2015-Mar-04 10:33N 40°41' W 074°05'0 0.0
2015-Mar-04 09:33N 40°41' W 074°05'0 0.0
2015-Mar-04 08:33N 40°41' W 074°05'0 0.0
2015-Mar-04 07:33N 40°41' W 074°05'0 0.0
2015-Mar-04 06:33N 40°41' W 074°05'0 0.0
2015-Mar-04 05:33N 40°41' W 074°05'0 0.0
2015-Mar-04 04:33N 40°41' W 074°05'0 0.0
2015-Mar-04 03:33N 40°41' W 074°05'0 0.0
2015-Mar-04 02:30N 40°41' W 074°05'0 0.0
2015-Mar-04 01:33N 40°41' W 074°05'0 0.0
2015-Mar-04 00:28N 40°41' W 074°05'0 0.0
2015-Mar-03 23:28N 40°41' W 074°05'0 0.0
2015-Mar-03 22:33N 40°41' W 074°05'1 1.4
2015-Mar-03 21:33N 40°41' W 074°03'1 1.4
2015-Mar-03 20:33N 40°41' W 074°05'0 0.0
2015-Mar-03 19:34N 40°41' W 074°05'0 0.0
2015-Mar-03 18:33N 40°41' W 074°05'0 0.0
2015-Mar-03 17:34N 40°41' W 074°05'0 0.0
2015-Mar-03 16:33N 40°41' W 074°05'0 0.0
2015-Mar-03 15:33N 40°41' W 074°05'0 0.0
2015-Mar-03 14:33N 40°41' W 074°05'0 0.0
2015-Mar-03 13:33N 40°41' W 074°05'0 0.0
2015-Mar-03 12:33N 40°41' W 074°05'0 0.0
2015-Mar-03 11:34N 40°41' W 074°05'0 0.0
2015-Mar-03 09:32N 40°41' W 074°05'0 0.0
2015-Mar-03 08:33N 40°41' W 074°05'0 0.0
2015-Mar-03 07:33N 40°41' W 074°05'0 0.0
2015-Mar-03 06:33N 40°41' W 074°05'0 0.0
2015-Mar-03 05:33N 40°41' W 074°05'0 0.0
2015-Mar-03 04:33N 40°41' W 074°05'0 0.0
2015-Mar-03 03:33N 40°41' W 074°05'0 0.0
2015-Mar-03 02:33N 40°41' W 074°05'0 0.0
2015-Mar-03 01:33N 40°41' W 074°05'0 0.0
2015-Mar-03 00:33N 40°41' W 074°05'2 1.8
2015-Mar-02 23:33N 40°41' W 074°02'2 1.9
2015-Mar-02 22:33N 40°40' W 073°60'3 3.5
2015-Mar-02 21:33N 40°41' W 074°04'3 2.5
2015-Mar-02 20:24N 40°41' W 074°08'0 0.0
2015-Mar-02 18:14N 40°41' W 074°08'0 0.0
2015-Mar-02 17:16N 40°41' W 074°08'0 0.0
2015-Mar-02 16:25N 40°41' W 074°08'0 0.0
2015-Mar-02 15:30N 40°41' W 074°08'1 0.5
2015-Mar-02 14:26N 40°42' W 074°09'3 2.9
2015-Mar-02 13:31N 40°39' W 074°09'3 3.4
2015-Mar-02 12:33N 40°39' W 074°05'2 1.8
2015-Mar-02 11:33N 40°41' W 074°05'0 0.1
2015-Mar-02 10:30N 40°41' W 074°05'0 0.0
2015-Mar-02 09:31N 40°41' W 074°05'0 0.0
2015-Mar-02 08:32N 40°41' W 074°05'0 0.0
2015-Mar-02 07:33N 40°41' W 074°05'0 0.0
2015-Mar-02 06:33N 40°41' W 074°05'0 0.0
2015-Mar-02 05:33N 40°41' W 074°05'0 0.0
2015-Mar-02 04:33N 40°41' W 074°05'0 0.0
2015-Mar-02 03:33N 40°41' W 074°05'0 0.0
2015-Mar-02 02:19N 40°41' W 074°05'0 0.0
2015-Mar-02 01:33N 40°41' W 074°05'0 0.0
2015-Mar-02 00:33N 40°41' W 074°05'0 0.0
2015-Mar-01 23:33N 40°41' W 074°05'0 0.0
2015-Mar-01 22:28N 40°41' W 074°05'0 0.0
2015-Mar-01 21:33N 40°41' W 074°05'0 0.0
2015-Mar-01 20:33N 40°41' W 074°05'0 0.0
2015-Mar-01 19:33N 40°41' W 074°05'0 0.0
2015-Mar-01 18:23N 40°41' W 074°05'0 0.0
2015-Mar-01 17:33N 40°41' W 074°05'0 0.0
2015-Mar-01 16:26N 40°41' W 074°05'0 0.0
2015-Mar-01 15:33N 40°41' W 074°05'0 0.0
2015-Mar-01 14:33N 40°41' W 074°05'0 0.0
2015-Mar-01 13:33N 40°41' W 074°05'0 0.0
2015-Mar-01 12:33N 40°41' W 074°05'0 0.0
2015-Mar-01 11:33N 40°41' W 074°05'0 0.0
2015-Mar-01 10:31N 40°41' W 074°05'0 0.0
2015-Mar-01 09:33N 40°41' W 074°05'0 0.0
2015-Mar-01 08:33N 40°41' W 074°05'0 0.0
2015-Mar-01 07:33N 40°41' W 074°05'0 0.0
2015-Mar-01 05:27N 40°41' W 074°05'0 0.0
2015-Mar-01 04:32N 40°41' W 074°05'0 0.0
2015-Mar-01 03:26N 40°41' W 074°05'0 0.0
2015-Mar-01 02:19N 40°41' W 074°05'0 0.0
2015-Mar-01 01:31N 40°41' W 074°05'0 0.0
2015-Feb-28 22:06N 40°41' W 074°05'0 0.0
2015-Feb-28 21:14N 40°41' W 074°05'0 0.0
2015-Feb-28 18:26N 40°41' W 074°05'0 0.0
2015-Feb-28 17:32N 40°41' W 074°05'0 0.0
2015-Feb-28 16:30N 40°41' W 074°05'0 0.0
2015-Feb-28 15:09N 40°41' W 074°05'0 0.0
2015-Feb-28 14:33N 40°41' W 074°05'0 0.0
2015-Feb-28 13:33N 40°41' W 074°05'0 0.0
2015-Feb-28 12:33N 40°41' W 074°05'0 0.0
2015-Feb-28 11:24N 40°41' W 074°05'0 0.0
2015-Feb-28 10:32N 40°41' W 074°05'0 0.0
2015-Feb-28 09:32N 40°41' W 074°05'0 0.0
2015-Feb-28 08:27N 40°41' W 074°05'0 0.0
2015-Feb-28 07:26N 40°41' W 074°05'0 0.0
2015-Feb-28 03:31N 40°41' W 074°05'0 0.0
2015-Feb-28 02:21N 40°41' W 074°05'0 0.0
2015-Feb-28 01:33N 40°41' W 074°05'0 0.0
2015-Feb-28 00:25N 40°41' W 074°05'0 0.0
2015-Feb-27 22:15N 40°41' W 074°05'0 0.0
2015-Feb-27 21:31N 40°41' W 074°05'3 3.3
2015-Feb-27 20:33N 40°40' W 074°01'0 0.2
2015-Feb-27 19:33N 40°40' W 074°01'3 3.2
2015-Feb-27 18:33N 40°39' W 074°05'3 3.1
2015-Feb-27 17:30N 40°41' W 074°08'0 0.1
2015-Feb-27 16:21N 40°41' W 074°08'0 0.2
2015-Feb-27 14:33N 40°41' W 074°08'0 0.1
2015-Feb-27 13:34N 40°41' W 074°08'1 0.1
2015-Feb-27 06:26N 40°42' W 074°09'2 0.5
2015-Feb-27 02:31N 40°40' W 074°08'4 2.6
2015-Feb-27 01:09N 40°41' W 074°04'1 1.0
2015-Feb-27 00:29N 40°41' W 074°04'5 5.7
2015-Feb-26 23:31N 40°44' W 073°58'0 0.0
2015-Feb-26 21:28N 40°44' W 073°58'7 7.5
2015-Feb-26 20:29N 40°39' W 074°06'3 3.2
2015-Feb-26 19:30N 40°41' W 074°08'0 0.0
2015-Feb-26 18:32N 40°41' W 074°08'0 0.1
2015-Feb-26 17:32N 40°41' W 074°08'3 2.1
2015-Feb-26 16:17N 40°39' W 074°07'3 3.6
2015-Feb-26 15:33N 40°41' W 074°04'0 0.2
2015-Feb-26 14:31N 40°41' W 074°05'0 0.0
2015-Feb-26 13:33N 40°41' W 074°05'0 0.0
2015-Feb-26 12:30N 40°41' W 074°05'0 0.0
2015-Feb-26 11:31N 40°41' W 074°05'0 0.0
2015-Feb-26 10:33N 40°41' W 074°05'0 0.0
2015-Feb-26 09:33N 40°41' W 074°05'0 0.0
2015-Feb-26 08:33N 40°41' W 074°05'0 0.0
2015-Feb-26 07:33N 40°41' W 074°05'0 0.0
2015-Feb-26 06:33N 40°41' W 074°05'0 0.0
2015-Feb-26 05:33N 40°41' W 074°05'0 0.0
2015-Feb-26 04:33N 40°41' W 074°05'1 1.3
2015-Feb-26 03:33N 40°40' W 074°04'4 2.7
2015-Feb-26 02:12N 40°41' W 074°08'0 0.3
2015-Feb-26 01:15N 40°41' W 074°09'2 3.0
2015-Feb-26 00:30N 40°39' W 074°08'4 3.6
2015-Feb-25 23:32N 40°40' W 074°04'1 1.1
2015-Feb-25 22:33N 40°41' W 074°05'4 3.3
2015-Feb-25 21:17N 40°39' W 074°09'4 1.2
2015-Feb-25 18:10N 40°40' W 074°04'1 2.4
2015-Feb-25 17:33N 40°41' W 074°04'0 0.2
2015-Feb-25 16:33N 40°41' W 074°05'0 0.0
2015-Feb-25 15:33N 40°41' W 074°05'0 0.0
2015-Feb-25 14:33N 40°41' W 074°05'0 0.0
2015-Feb-25 13:32N 40°41' W 074°05'0 0.0
2015-Feb-25 12:33N 40°41' W 074°05'0 0.0
2015-Feb-25 11:33N 40°41' W 074°05'0 0.0
2015-Feb-25 10:33N 40°41' W 074°05'0 0.0
2015-Feb-25 09:32N 40°41' W 074°05'0 0.0
2015-Feb-25 08:32N 40°41' W 074°05'0 0.0
2015-Feb-25 07:33N 40°41' W 074°05'0 0.0
2015-Feb-25 06:33N 40°41' W 074°05'0 0.0
2015-Feb-25 05:33N 40°41' W 074°05'0 0.0
2015-Feb-25 04:33N 40°41' W 074°05'0 0.0
2015-Feb-25 03:33N 40°41' W 074°05'0 0.0
2015-Feb-25 02:33N 40°41' W 074°05'0 0.0
2015-Feb-25 01:33N 40°41' W 074°05'0 0.0
2015-Feb-25 00:33N 40°41' W 074°05'0 0.0
2015-Feb-24 23:33N 40°41' W 074°05'0 0.0
2015-Feb-24 22:33N 40°41' W 074°05'0 0.0
2015-Feb-24 21:33N 40°41' W 074°05'0 0.0
2015-Feb-24 20:33N 40°41' W 074°05'0 0.0
2015-Feb-24 19:33N 40°41' W 074°05'0 0.0
2015-Feb-24 18:33N 40°41' W 074°05'0 0.0
2015-Feb-24 17:33N 40°41' W 074°05'0 0.0
2015-Feb-24 16:34N 40°41' W 074°05'0 0.0
2015-Feb-24 15:33N 40°41' W 074°05'0 0.0
2015-Feb-24 14:33N 40°41' W 074°05'0 0.0
2015-Feb-24 13:33N 40°41' W 074°05'0 0.0
2015-Feb-24 12:33N 40°41' W 074°05'0 0.0
2015-Feb-24 11:33N 40°41' W 074°05'0 0.0
2015-Feb-24 10:33N 40°41' W 074°05'  

Dump ship's entire track history